CheckWX is a tool to help pilots better visualize weather data.  It is not intended as a substitute for an official pre-flight weather briefing.

18:49:51 UTC

EIME METAR
Casement Air Base Airport
Baldonnel, Ireland
Current

50 mins ago

EIME 171800Z 22022KT 9999 FEW026 SCT040 09/05 Q1003
Observed
Feb-17 @ 18:00 UTC
Wind
  • 220° at 22 KTS
Visibility
10,000+ meters
Flight Rules
VFR
Cloud Levels
  • Few at 2,600' AGL
  • Scattered at 4,000' AGL
Temperature
C / 48°F
Dewpoint
C / 41°F
Humidity
76%
Altimeter
29.62" Hg
Pressure
1002.92 hPa
Previous

2 hours ago

EIME 171700Z 19018KT 9999 FEW018CB SCT040 10/05 Q1003
Observed
Feb-17 @ 17:00 UTC
Wind
  • 190° at 18 KTS
Visibility
10,000+ meters
Flight Rules
VFR
Cloud Levels
  • Few at 1,800' AGL
  • Scattered at 4,000' AGL
Temperature
10°C / 50°F
Dewpoint
C / 41°F
Humidity
71%
Altimeter
29.62" Hg
Pressure
1002.92 hPa
Previous

3 hours ago

EIME 171600Z 19020G30KT 9999 FEW032 SCT040 10/05 Q1003
Observed
Feb-17 @ 16:00 UTC
Wind
  • 190° at 20 KTS
  • Gusting to 30 KTS
Visibility
10,000+ meters
Flight Rules
VFR
Cloud Levels
  • Few at 3,200' AGL
  • Scattered at 4,000' AGL
Temperature
10°C / 50°F
Dewpoint
C / 41°F
Humidity
71%
Altimeter
29.62" Hg
Pressure
1002.92 hPa